This is the latest recevied weather packets stored in our database for station/object OM8AKX-12. If no packets are shown the sender has not sent any weather packets the latest 10 day(s).
| Time | Temp. | Humidity | Pressure | Rain* | Wind** | Luminosity | Snow |
|---|---|---|---|---|---|---|---|
| 1787660464 | 28.33° C | 26% | 1010.6 hPa | - | - | - | - |
| 1787659564 | 28.89° C | 26% | 1010.7 hPa | - | - | - | - |
| 1787658664 | 29.44° C | 25% | 1010.8 hPa | - | - | - | - |
| 1787657764 | 27.78° C | 27% | 1011.2 hPa | - | - | - | - |
| 1787656864 | 29.44° C | 26% | 1011.3 hPa | - | - | - | - |
| 1787655964 | 28.89° C | 28% | 1011.6 hPa | - | - | - | - |
| 1787655064 | 27.78° C | 29% | 1011.6 hPa | - | - | - | - |
| 1787654164 | 26.11° C | 31% | 1011.8 hPa | - | - | - | - |
| 1787653264 | 27.22° C | 31% | 1012.1 hPa | - | - | - | - |
| 1787652364 | 25.56° C | 31% | 1012.2 hPa | - | - | - | - |
| 1787651464 | 25.56° C | 34% | 1012.2 hPa | - | - | - | - |
| 1787650564 | 24.44° C | 34% | 1012.5 hPa | - | - | - | - |
| 1787649664 | 24.44° C | 34% | 1012.7 hPa | - | - | - | - |
| 1787648763 | 23.89° C | 36% | 1012.8 hPa | - | - | - | - |
| 1787647863 | 22.78° C | 38% | 1013 hPa | - | - | - | - |
| 1787646963 | 22.78° C | 38% | 1013.2 hPa | - | - | - | - |
| 1787646070 | 22.78° C | 38% | 1013.1 hPa | - | - | - | - |
| 1787645170 | 22.78° C | 38% | 1013.3 hPa | - | - | - | - |
| 1787644263 | 22.78° C | 37% | 1013.2 hPa | - | - | - | - |
| 1787643363 | 21.67° C | 39% | 1013.1 hPa | - | - | - | - |
| 1787642463 | 22.22° C | 42% | 1013.2 hPa | - | - | - | - |
| 1787641563 | 21.11° C | 45% | 1013.2 hPa | - | - | - | - |
| 1787640663 | 21.11° C | 45% | 1013.1 hPa | - | - | - | - |
| 1787639763 | 20.56° C | 45% | 1013.1 hPa | - | - | - | - |
| 1787637963 | 18.89° C | 52% | 1013.5 hPa | - | - | - | - |
* Rain since midnight (hover to see other rain measurements)
** Current wind speed in m/s (hover to see current wind gust speed)